createdAt,value
2022-09-26T07:31:41.610Z,34.60
2022-09-26T07:36:49.916Z,22.60
2022-09-26T07:41:52.173Z,23.20
2022-09-26T07:47:12.393Z,21.70
2022-09-26T07:52:14.674Z,22.50
2022-09-26T07:57:41.673Z,21.20
2022-09-26T08:03:18.490Z,22.20
2022-09-26T08:08:20.373Z,22.50
2022-09-26T08:13:48.287Z,23.80
2022-09-26T08:19:12.211Z,23.20
2022-09-26T08:24:13.976Z,21.90
2022-09-26T08:29:35.017Z,23.00
2022-09-26T08:34:39.027Z,23.00
2022-09-26T08:40:00.922Z,110.10
2022-09-26T08:45:48.655Z,25.80
2022-09-26T08:51:26.777Z,21.80
2022-09-26T08:56:34.165Z,20.70
2022-09-26T09:01:39.379Z,18.90
2022-09-26T09:06:53.425Z,16.60
2022-09-26T09:12:04.171Z,16.40
2022-09-26T09:17:13.967Z,16.30
2022-09-26T09:22:32.422Z,15.80
2022-09-26T09:27:58.510Z,15.30
2022-09-26T09:33:10.231Z,13.70
2022-09-26T09:38:18.114Z,13.60
2022-09-26T09:44:00.164Z,37.40
2022-09-26T09:49:10.877Z,15.20
2022-09-26T09:54:22.205Z,10.50
2022-09-26T09:59:27.278Z,11.40
2022-09-26T10:04:49.135Z,11.40
2022-09-26T10:09:51.793Z,10.50
2022-09-26T10:15:19.720Z,8.90
2022-09-26T10:20:52.861Z,10.70
2022-09-26T10:25:59.921Z,8.50
2022-09-26T10:31:08.298Z,7.70
2022-09-26T10:36:29.157Z,8.90
2022-09-26T10:41:38.074Z,7.50
2022-09-26T10:46:42.810Z,7.70
2022-09-26T10:52:08.635Z,7.00
2022-09-26T10:57:18.758Z,7.20
2022-09-26T11:02:22.617Z,6.50
2022-09-26T11:07:30.314Z,7.00
2022-09-26T11:13:16.141Z,7.30
2022-09-26T11:18:20.513Z,5.70
2022-09-26T11:23:23.075Z,6.20
2022-09-26T11:28:30.905Z,6.40
2022-09-26T11:33:52.776Z,7.20
2022-09-26T11:39:28.084Z,7.00
2022-09-26T11:44:32.762Z,6.90
2022-09-26T11:49:55.066Z,11.40
2022-09-26T11:55:29.277Z,7.40
2022-09-26T12:00:36.867Z,7.50
2022-09-26T12:05:51.727Z,8.10
2022-09-26T12:10:56.768Z,6.80
2022-09-26T12:16:02.942Z,7.60
2022-09-26T12:21:16.670Z,7.20
2022-09-26T12:26:29.537Z,7.60
2022-09-26T12:31:50.620Z,8.20
2022-09-26T12:36:59.342Z,8.50
2022-09-26T12:42:24.644Z,8.10
2022-09-26T12:47:28.841Z,9.00
2022-09-26T12:52:30.402Z,7.90
2022-09-26T12:57:32.868Z,7.50
2022-09-26T13:02:43.679Z,6.50
2022-09-26T13:07:55.834Z,6.90
2022-09-26T13:13:10.138Z,7.60
2022-09-26T13:18:15.880Z,7.60
2022-09-26T13:23:27.542Z,6.30
2022-09-26T13:28:37.840Z,7.80
2022-09-26T13:33:44.753Z,7.20
2022-09-26T13:38:53.744Z,7.80
2022-09-26T13:44:28.543Z,7.00
2022-09-26T13:49:51.121Z,6.80
2022-09-26T13:55:14.406Z,5.90
2022-09-26T14:00:17.082Z,6.40
2022-09-26T14:05:18.556Z,4.00
2022-09-26T14:10:34.813Z,2.20
2022-09-26T14:15:48.707Z,1.90
2022-09-26T14:21:06.548Z,1.40
2022-09-26T14:26:09.672Z,1.40
2022-09-26T14:31:26.672Z,1.00
2022-09-26T14:36:32.099Z,1.10
2022-09-26T14:41:34.786Z,1.40
2022-09-26T14:46:36.334Z,1.60
2022-09-26T14:51:41.521Z,1.90
2022-09-26T14:56:51.185Z,1.50
2022-09-26T15:01:53.560Z,2.30
2022-09-26T15:07:01.240Z,3.40
2022-09-26T15:12:07.941Z,4.00
2022-09-26T15:17:35.568Z,3.20
2022-09-26T15:22:37.137Z,4.50
2022-09-26T15:27:46.112Z,3.50
2022-09-26T15:32:49.205Z,3.20
2022-09-26T15:37:50.816Z,4.70
2022-09-26T15:43:10.684Z,3.60
2022-09-26T15:48:24.259Z,8.40
2022-09-26T15:53:40.974Z,5.10
2022-09-26T15:58:49.242Z,3.50
2022-09-26T16:03:55.053Z,2.90
2022-09-26T16:09:04.186Z,2.90
2022-09-26T16:14:07.313Z,3.20
2022-09-26T16:19:27.925Z,4.70
2022-09-26T16:24:35.882Z,5.50
2022-09-26T16:29:51.821Z,9.40
2022-09-26T16:34:53.419Z,10.70
2022-09-26T16:39:57.190Z,15.20
2022-09-26T16:44:59.141Z,34.00
2022-09-26T16:50:19.884Z,37.20
2022-09-26T16:55:21.984Z,37.50
2022-09-26T17:00:43.892Z,27.40
2022-09-26T17:05:45.642Z,92.30
2022-09-26T17:10:47.186Z,23.70
2022-09-26T17:15:50.832Z,18.30
2022-09-26T17:20:52.644Z,18.40
2022-09-26T17:25:57.531Z,23.60
2022-09-26T17:31:06.289Z,30.60
2022-09-26T17:36:11.083Z,38.00
2022-09-26T17:41:13.073Z,37.00
2022-09-26T17:46:16.304Z,46.70
2022-09-26T17:51:21.144Z,44.30
2022-09-26T17:56:22.760Z,39.90
2022-09-26T18:01:26.298Z,47.70
2022-09-26T18:06:31.390Z,54.40
2022-09-26T18:11:34.742Z,55.80
2022-09-26T18:16:36.438Z,56.20
2022-09-26T18:21:40.188Z,69.70
2022-09-26T18:26:47.376Z,82.50
2022-09-26T18:31:49.208Z,88.50
2022-09-26T18:36:52.781Z,87.30
2022-09-26T18:41:57.527Z,80.10
2022-09-26T18:47:01.841Z,99.00
2022-09-26T18:52:04.258Z,109.80
2022-09-26T18:57:24.737Z,114.00
2022-09-26T19:02:35.518Z,100.70
2022-09-26T19:07:37.233Z,74.20
2022-09-26T19:12:39.933Z,49.30
2022-09-26T19:17:41.611Z,43.70
2022-09-26T19:22:43.231Z,37.90
2022-09-26T19:27:49.685Z,50.90
2022-09-26T19:32:52.532Z,49.70
2022-09-26T19:37:54.255Z,40.80
2022-09-26T19:42:57.324Z,39.60
2022-09-26T19:47:59.304Z,38.20
2022-09-26T19:53:03.256Z,36.20
2022-09-26T19:58:15.258Z,42.60
2022-09-26T20:03:18.421Z,43.40
2022-09-26T20:08:22.213Z,38.90
2022-09-26T20:13:23.708Z,37.00
2022-09-26T20:18:25.423Z,39.10
2022-09-26T20:23:27.122Z,39.20
2022-09-26T20:28:28.654Z,39.70
2022-09-26T20:33:30.302Z,35.10
2022-09-26T20:38:36.752Z,33.60
2022-09-26T20:43:38.708Z,33.60
2022-09-26T20:48:45.413Z,33.10
2022-09-26T20:53:46.964Z,42.40
2022-09-26T20:58:48.527Z,63.40
2022-09-26T21:03:51.094Z,69.00
2022-09-26T21:08:52.639Z,63.70
2022-09-26T21:13:54.064Z,62.70
2022-09-26T21:23:58.833Z,47.70
2022-09-26T21:29:00.466Z,42.70
2022-09-26T21:34:03.309Z,46.00
2022-09-26T21:39:04.988Z,57.20
2022-09-26T21:44:10.721Z,45.60
2022-09-26T21:49:12.184Z,40.70
2022-09-26T21:59:15.271Z,34.30
2022-09-26T22:04:16.868Z,32.40
2022-09-26T22:09:18.356Z,30.00
2022-09-26T22:14:19.889Z,30.20
2022-09-26T22:24:22.833Z,29.10
2022-09-26T22:29:24.316Z,27.30
2022-09-26T22:39:27.931Z,30.70
2022-09-26T22:44:29.474Z,30.70
2022-09-26T22:49:31.075Z,27.20
2022-09-26T22:54:32.575Z,25.30
2022-09-26T23:04:47.404Z,24.70
2022-09-26T23:09:49.039Z,26.60
2022-09-26T23:14:50.515Z,25.30
2022-09-26T23:19:52.332Z,25.00
2022-09-26T23:24:53.963Z,25.70
2022-09-26T23:29:55.415Z,25.70
2022-09-26T23:34:57.036Z,25.50
2022-09-26T23:39:58.577Z,27.70
2022-09-26T23:55:02.897Z,27.20
